sensor_id;sensor_type;location;lat;lon;timestamp;pressure;altitude;pressure_sealevel;temperature;humidity
67697;BME280;54486;51.442;6.778;2024-01-07T00:00:32;78593.66;;;-141.21;100.00
67697;BME280;54486;51.442;6.778;2024-01-07T00:02:59;78599.66;;;-141.21;100.00
67697;BME280;54486;51.442;6.778;2024-01-07T00:05:27;78589.63;;;-141.21;100.00
67697;BME280;54486;51.442;6.778;2024-01-07T00:07:56;78591.63;;;-141.21;100.00
67697;BME280;54486;51.442;6.778;2024-01-07T00:10:23;78595.66;;;-141.21;100.00
67697;BME280;54486;51.442;6.778;2024-01-07T00:12:51;78591.63;;;-141.21;100.00
67697;BME280;54486;51.442;6.778;2024-01-07T00:15:19;78591.63;;;-141.21;100.00
67697;BME280;54486;51.442;6.778;2024-01-07T00:17:46;78589.63;;;-141.21;100.00
67697;BME280;54486;51.442;6.778;2024-01-07T00:20:13;78589.63;;;-141.21;100.00
67697;BME280;54486;51.442;6.778;2024-01-07T00:22:41;78591.63;;;-141.21;100.00
67697;BME280;54486;51.442;6.778;2024-01-07T00:25:08;78591.63;;;-141.21;100.00
67697;BME280;54486;51.442;6.778;2024-01-07T00:27:35;78587.63;;;-141.21;100.00
67697;BME280;54486;51.442;6.778;2024-01-07T00:30:03;78593.66;;;-141.21;100.00
67697;BME280;54486;51.442;6.778;2024-01-07T00:32:31;78589.63;;;-141.21;100.00
67697;BME280;54486;51.442;6.778;2024-01-07T00:34:58;78595.66;;;-141.21;100.00
67697;BME280;54486;51.442;6.778;2024-01-07T00:37:26;78601.66;;;-141.21;100.00
67697;BME280;54486;51.442;6.778;2024-01-07T00:39:53;78607.66;;;-141.21;100.00
67697;BME280;54486;51.442;6.778;2024-01-07T00:42:20;78613.66;;;-141.21;100.00
67697;BME280;54486;51.442;6.778;2024-01-07T00:44:49;78615.66;;;-141.21;100.00
67697;BME280;54486;51.442;6.778;2024-01-07T00:47:17;78611.66;;;-141.21;100.00
67697;BME280;54486;51.442;6.778;2024-01-07T00:49:44;78611.66;;;-141.21;100.00
67697;BME280;54486;51.442;6.778;2024-01-07T00:52:12;78611.66;;;-141.21;100.00
67697;BME280;54486;51.442;6.778;2024-01-07T00:54:39;78615.66;;;-141.21;99.84
67697;BME280;54486;51.442;6.778;2024-01-07T00:57:06;78623.69;;;-141.21;99.57
67697;BME280;54486;51.442;6.778;2024-01-07T00:59:33;78623.69;;;-141.21;99.24
67697;BME280;54486;51.442;6.778;2024-01-07T01:02:01;78623.69;;;-141.21;99.29
67697;BME280;54486;51.442;6.778;2024-01-07T01:04:29;78627.69;;;-141.21;99.39
67697;BME280;54486;51.442;6.778;2024-01-07T01:06:56;78627.69;;;-141.21;99.81
67697;BME280;54486;51.442;6.778;2024-01-07T01:09:24;78633.69;;;-141.21;99.56
67697;BME280;54486;51.442;6.778;2024-01-07T01:11:53;78639.69;;;-141.21;99.58
67697;BME280;54486;51.442;6.778;2024-01-07T01:14:20;78643.69;;;-141.21;99.13
67697;BME280;54486;51.442;6.778;2024-01-07T01:16:47;78639.69;;;-141.21;99.22
67697;BME280;54486;51.442;6.778;2024-01-07T01:19:17;78631.69;;;-141.21;99.34
67697;BME280;54486;51.442;6.778;2024-01-07T01:21:45;78643.69;;;-141.21;99.13
67697;BME280;54486;51.442;6.778;2024-01-07T01:24:12;78647.72;;;-141.21;99.11
67697;BME280;54486;51.442;6.778;2024-01-07T01:26:39;78647.72;;;-141.21;99.01
67697;BME280;54486;51.442;6.778;2024-01-07T01:29:07;78647.72;;;-141.21;99.41
67697;BME280;54486;51.442;6.778;2024-01-07T01:31:34;78661.72;;;-141.21;98.94
67697;BME280;54486;51.442;6.778;2024-01-07T01:34:02;78655.72;;;-141.21;99.07
67697;BME280;54486;51.442;6.778;2024-01-07T01:36:33;78659.72;;;-141.21;99.33
67697;BME280;54486;51.442;6.778;2024-01-07T01:39:00;78663.72;;;-141.21;99.28
67697;BME280;54486;51.442;6.778;2024-01-07T01:41:28;78663.72;;;-141.21;99.15
67697;BME280;54486;51.442;6.778;2024-01-07T01:44:00;78667.72;;;-141.21;99.39
67697;BME280;54486;51.442;6.778;2024-01-07T01:46:28;78663.72;;;-141.21;99.51
67697;BME280;54486;51.442;6.778;2024-01-07T01:48:56;78665.72;;;-141.21;99.32
67697;BME280;54486;51.442;6.778;2024-01-07T01:51:25;78671.75;;;-141.21;99.28
67697;BME280;54486;51.442;6.778;2024-01-07T01:53:54;78675.75;;;-141.21;99.08
67697;BME280;54486;51.442;6.778;2024-01-07T01:56:22;78679.75;;;-141.21;99.08
67697;BME280;54486;51.442;6.778;2024-01-07T01:58:49;78679.75;;;-141.21;99.07
67697;BME280;54486;51.442;6.778;2024-01-07T02:01:17;78679.75;;;-141.21;98.75
67697;BME280;54486;51.442;6.778;2024-01-07T02:03:45;78679.75;;;-141.21;98.62
67697;BME280;54486;51.442;6.778;2024-01-07T02:06:13;78679.75;;;-141.21;98.83
67697;BME280;54486;51.442;6.778;2024-01-07T02:08:40;78691.75;;;-141.21;98.68
67697;BME280;54486;51.442;6.778;2024-01-07T02:11:17;78691.75;;;-141.21;98.37
67697;BME280;54486;51.442;6.778;2024-01-07T02:13:45;78695.78;;;-141.21;98.45
67697;BME280;54486;51.442;6.778;2024-01-07T02:16:14;78703.78;;;-141.21;98.35
67697;BME280;54486;51.442;6.778;2024-01-07T02:18:42;78707.78;;;-141.21;97.91
67697;BME280;54486;51.442;6.778;2024-01-07T02:21:11;78711.78;;;-141.21;98.23
67697;BME280;54486;51.442;6.778;2024-01-07T02:23:39;78711.78;;;-141.21;98.08
67697;BME280;54486;51.442;6.778;2024-01-07T02:26:07;78715.78;;;-141.21;97.71
67697;BME280;54486;51.442;6.778;2024-01-07T02:28:34;78723.81;;;-141.21;98.02
67697;BME280;54486;51.442;6.778;2024-01-07T02:31:01;78715.78;;;-141.21;98.16
67697;BME280;54486;51.442;6.778;2024-01-07T02:33:28;78715.78;;;-141.21;98.00
67697;BME280;54486;51.442;6.778;2024-01-07T02:35:57;78715.78;;;-141.21;98.16
67697;BME280;54486;51.442;6.778;2024-01-07T02:38:25;78715.78;;;-141.21;98.55
67697;BME280;54486;51.442;6.778;2024-01-07T02:40:52;78711.78;;;-141.21;98.62
67697;BME280;54486;51.442;6.778;2024-01-07T02:43:19;78707.78;;;-141.21;98.70
67697;BME280;54486;51.442;6.778;2024-01-07T02:45:46;78707.78;;;-141.21;98.39
67697;BME280;54486;51.442;6.778;2024-01-07T02:48:13;78711.78;;;-141.21;98.54
67697;BME280;54486;51.442;6.778;2024-01-07T02:50:40;78711.78;;;-141.21;98.39
67697;BME280;54486;51.442;6.778;2024-01-07T02:53:07;78721.81;;;-141.21;97.93
67697;BME280;54486;51.442;6.778;2024-01-07T02:55:36;78731.81;;;-141.21;97.81
67697;BME280;54486;51.442;6.778;2024-01-07T02:58:03;78735.81;;;-141.21;97.26
67697;BME280;54486;51.442;6.778;2024-01-07T03:00:30;78739.81;;;-141.21;97.73
67697;BME280;54486;51.442;6.778;2024-01-07T03:02:58;78735.81;;;-141.21;97.71
67697;BME280;54486;51.442;6.778;2024-01-07T03:05:25;78735.81;;;-141.21;97.44
67697;BME280;54486;51.442;6.778;2024-01-07T03:07:54;78743.81;;;-141.21;97.83
67697;BME280;54486;51.442;6.778;2024-01-07T03:10:21;78745.84;;;-141.21;97.45
67697;BME280;54486;51.442;6.778;2024-01-07T03:12:48;78751.84;;;-141.21;97.11
67697;BME280;54486;51.442;6.778;2024-01-07T03:15:15;78757.84;;;-141.21;97.24
67697;BME280;54486;51.442;6.778;2024-01-07T03:17:43;78759.84;;;-141.21;96.67
67697;BME280;54486;51.442;6.778;2024-01-07T03:20:11;78763.84;;;-141.21;96.29
67697;BME280;54486;51.442;6.778;2024-01-07T03:22:38;78771.88;;;-141.21;96.28
67697;BME280;54486;51.442;6.778;2024-01-07T03:25:05;78769.84;;;-141.21;96.38
67697;BME280;54486;51.442;6.778;2024-01-07T03:27:33;78775.88;;;-141.21;95.81
67697;BME280;54486;51.442;6.778;2024-01-07T03:30:00;78779.88;;;-141.21;95.58
67697;BME280;54486;51.442;6.778;2024-01-07T03:32:27;78783.88;;;-141.21;95.64
67697;BME280;54486;51.442;6.778;2024-01-07T03:34:55;78787.88;;;-141.21;95.78
67697;BME280;54486;51.442;6.778;2024-01-07T03:37:22;78785.88;;;-141.21;95.23
67697;BME280;54486;51.442;6.778;2024-01-07T03:39:49;78795.91;;;-141.21;95.71
67697;BME280;54486;51.442;6.778;2024-01-07T03:42:17;78799.91;;;-141.21;95.48
67697;BME280;54486;51.442;6.778;2024-01-07T03:44:44;78799.91;;;-141.21;95.52
67697;BME280;54486;51.442;6.778;2024-01-07T03:47:11;78813.91;;;-141.21;95.66
67697;BME280;54486;51.442;6.778;2024-01-07T03:49:38;78803.91;;;-141.21;95.92
67697;BME280;54486;51.442;6.778;2024-01-07T03:52:06;78807.91;;;-141.21;96.03
67697;BME280;54486;51.442;6.778;2024-01-07T03:54:33;78805.91;;;-141.21;96.46
67697;BME280;54486;51.442;6.778;2024-01-07T03:57:00;78807.91;;;-141.21;96.11
67697;BME280;54486;51.442;6.778;2024-01-07T03:59:28;78809.91;;;-141.21;96.57
67697;BME280;54486;51.442;6.778;2024-01-07T04:01:56;78813.91;;;-141.21;96.68
67697;BME280;54486;51.442;6.778;2024-01-07T04:04:24;78807.91;;;-141.21;96.60
67697;BME280;54486;51.442;6.778;2024-01-07T04:06:51;78815.91;;;-141.21;96.64
67697;BME280;54486;51.442;6.778;2024-01-07T04:09:18;78825.94;;;-141.21;96.33
67697;BME280;54486;51.442;6.778;2024-01-07T04:11:45;78833.94;;;-141.21;96.00
67697;BME280;54486;51.442;6.778;2024-01-07T04:14:14;78839.94;;;-141.21;95.95
67697;BME280;54486;51.442;6.778;2024-01-07T04:16:42;78835.94;;;-141.21;96.24
67697;BME280;54486;51.442;6.778;2024-01-07T04:19:09;78839.94;;;-141.21;96.39
67697;BME280;54486;51.442;6.778;2024-01-07T04:21:36;78837.94;;;-141.21;96.60
67697;BME280;54486;51.442;6.778;2024-01-07T04:24:03;78839.94;;;-141.21;96.31
67697;BME280;54486;51.442;6.778;2024-01-07T04:26:31;78839.94;;;-141.21;96.61
67697;BME280;54486;51.442;6.778;2024-01-07T04:28:58;78841.94;;;-141.21;96.71
67697;BME280;54486;51.442;6.778;2024-01-07T04:31:25;78843.97;;;-141.21;96.62
67697;BME280;54486;51.442;6.778;2024-01-07T04:33:52;78847.97;;;-141.21;96.52
67697;BME280;54486;51.442;6.778;2024-01-07T04:36:19;78851.97;;;-141.21;96.50
67697;BME280;54486;51.442;6.778;2024-01-07T04:38:46;78857.97;;;-141.21;96.30
67697;BME280;54486;51.442;6.778;2024-01-07T04:41:13;78851.97;;;-141.21;96.30
67697;BME280;54486;51.442;6.778;2024-01-07T04:43:42;78863.97;;;-141.21;96.30
67697;BME280;54486;51.442;6.778;2024-01-07T04:46:10;78868.00;;;-141.21;96.17
67697;BME280;54486;51.442;6.778;2024-01-07T04:48:38;78861.97;;;-141.21;96.19
67697;BME280;54486;51.442;6.778;2024-01-07T04:51:06;78870.00;;;-141.21;95.99
67697;BME280;54486;51.442;6.778;2024-01-07T04:53:36;78868.00;;;-141.21;95.98
67697;BME280;54486;51.442;6.778;2024-01-07T04:56:03;78872.00;;;-141.21;95.66
67697;BME280;54486;51.442;6.778;2024-01-07T04:58:30;78874.00;;;-141.21;95.04
67697;BME280;54486;51.442;6.778;2024-01-07T05:00:57;78880.00;;;-141.21;95.33
67697;BME280;54486;51.442;6.778;2024-01-07T05:03:24;78876.00;;;-141.21;95.01
67697;BME280;54486;51.442;6.778;2024-01-07T05:05:51;78888.00;;;-141.21;94.85
67697;BME280;54486;51.442;6.778;2024-01-07T05:08:18;78892.03;;;-141.21;94.76
67697;BME280;54486;51.442;6.778;2024-01-07T05:10:47;78892.03;;;-141.21;94.12
67697;BME280;54486;51.442;6.778;2024-01-07T05:13:14;78892.03;;;-141.21;94.37
67697;BME280;54486;51.442;6.778;2024-01-07T05:15:41;78896.03;;;-141.21;93.98
67697;BME280;54486;51.442;6.778;2024-01-07T05:18:08;78902.03;;;-141.21;94.21
67697;BME280;54486;51.442;6.778;2024-01-07T05:20:36;78906.03;;;-141.21;93.61
67697;BME280;54486;51.442;6.778;2024-01-07T05:23:04;78904.03;;;-141.21;93.43
67697;BME280;54486;51.442;6.778;2024-01-07T05:25:31;78912.03;;;-141.21;93.68
67697;BME280;54486;51.442;6.778;2024-01-07T05:27:58;78912.03;;;-141.21;93.22
67697;BME280;54486;51.442;6.778;2024-01-07T05:30:25;78920.06;;;-141.21;93.14
67697;BME280;54486;51.442;6.778;2024-01-07T05:32:52;78922.06;;;-141.21;93.30
67697;BME280;54486;51.442;6.778;2024-01-07T05:35:19;78924.06;;;-141.21;93.28
67697;BME280;54486;51.442;6.778;2024-01-07T05:37:46;78924.06;;;-141.21;93.26
67697;BME280;54486;51.442;6.778;2024-01-07T05:40:14;78928.06;;;-141.21;93.67
67697;BME280;54486;51.442;6.778;2024-01-07T05:42:41;78932.06;;;-141.21;93.51
67697;BME280;54486;51.442;6.778;2024-01-07T05:45:09;78936.06;;;-141.21;92.83
67697;BME280;54486;51.442;6.778;2024-01-07T05:47:36;78936.06;;;-141.21;92.56
67697;BME280;54486;51.442;6.778;2024-01-07T05:50:03;78938.06;;;-141.21;92.50
67697;BME280;54486;51.442;6.778;2024-01-07T05:52:31;78952.09;;;-141.21;92.57
67697;BME280;54486;51.442;6.778;2024-01-07T05:54:58;78956.09;;;-141.21;93.19
67697;BME280;54486;51.442;6.778;2024-01-07T05:57:25;78964.13;;;-141.21;93.21
67697;BME280;54486;51.442;6.778;2024-01-07T05:59:52;78968.13;;;-141.21;93.09
67697;BME280;54486;51.442;6.778;2024-01-07T06:02:21;78972.13;;;-141.21;92.75
67697;BME280;54486;51.442;6.778;2024-01-07T06:04:50;78970.13;;;-141.21;93.16
67697;BME280;54486;51.442;6.778;2024-01-07T06:07:17;78980.13;;;-141.21;93.03
67697;BME280;54486;51.442;6.778;2024-01-07T06:09:44;78990.16;;;-141.21;93.04
67697;BME280;54486;51.442;6.778;2024-01-07T06:12:11;78996.16;;;-141.21;92.72
67697;BME280;54486;51.442;6.778;2024-01-07T06:14:38;78986.16;;;-141.21;92.55
67697;BME280;54486;51.442;6.778;2024-01-07T06:17:05;78990.16;;;-141.21;92.61
67697;BME280;54486;51.442;6.778;2024-01-07T06:19:32;79002.16;;;-141.21;92.24
67697;BME280;54486;51.442;6.778;2024-01-07T06:21:59;79000.16;;;-141.21;92.29
67697;BME280;54486;51.442;6.778;2024-01-07T06:24:26;79000.16;;;-141.21;91.98
67697;BME280;54486;51.442;6.778;2024-01-07T06:26:54;78996.16;;;-141.21;92.68
67697;BME280;54486;51.442;6.778;2024-01-07T06:29:21;78998.16;;;-141.21;92.64
67697;BME280;54486;51.442;6.778;2024-01-07T06:31:48;78998.16;;;-141.21;92.45
67697;BME280;54486;51.442;6.778;2024-01-07T06:34:16;78996.16;;;-141.21;93.02
67697;BME280;54486;51.442;6.778;2024-01-07T06:36:43;78998.16;;;-141.21;92.70
67697;BME280;54486;51.442;6.778;2024-01-07T06:39:10;78992.16;;;-141.21;92.60
67697;BME280;54486;51.442;6.778;2024-01-07T06:41:38;78998.16;;;-141.21;92.62
67697;BME280;54486;51.442;6.778;2024-01-07T06:44:04;79008.16;;;-141.21;92.68
67697;BME280;54486;51.442;6.778;2024-01-07T06:46:32;79012.19;;;-141.21;92.30
67697;BME280;54486;51.442;6.778;2024-01-07T06:49:01;79016.19;;;-141.21;92.04
67697;BME280;54486;51.442;6.778;2024-01-07T06:51:28;79022.19;;;-141.21;91.86
67697;BME280;54486;51.442;6.778;2024-01-07T06:53:55;79022.19;;;-141.21;92.07
67697;BME280;54486;51.442;6.778;2024-01-07T06:56:23;79024.19;;;-141.21;91.82
67697;BME280;54486;51.442;6.778;2024-01-07T06:58:51;79030.19;;;-141.21;91.14
67697;BME280;54486;51.442;6.778;2024-01-07T07:01:22;79040.22;;;-141.21;91.48
67697;BME280;54486;51.442;6.778;2024-01-07T07:03:50;79036.22;;;-141.21;91.51
67697;BME280;54486;51.442;6.778;2024-01-07T07:06:17;79036.22;;;-141.21;91.15
67697;BME280;54486;51.442;6.778;2024-01-07T07:08:45;79036.22;;;-141.21;90.89
67697;BME280;54486;51.442;6.778;2024-01-07T07:11:12;79044.22;;;-141.21;90.09
67697;BME280;54486;51.442;6.778;2024-01-07T07:13:40;79054.22;;;-141.21;89.64
67697;BME280;54486;51.442;6.778;2024-01-07T07:16:07;79052.22;;;-141.21;88.67
67697;BME280;54486;51.442;6.778;2024-01-07T07:18:35;79060.25;;;-141.21;89.04
67697;BME280;54486;51.442;6.778;2024-01-07T07:21:02;79068.25;;;-141.21;88.59
67697;BME280;54486;51.442;6.778;2024-01-07T07:23:30;79076.25;;;-141.21;89.09
67697;BME280;54486;51.442;6.778;2024-01-07T07:25:57;79068.25;;;-141.21;88.98
67697;BME280;54486;51.442;6.778;2024-01-07T07:28:25;79080.28;;;-141.21;88.78
67697;BME280;54486;51.442;6.778;2024-01-07T07:30:52;79090.28;;;-141.21;89.04
67697;BME280;54486;51.442;6.778;2024-01-07T07:33:20;79100.28;;;-141.21;88.42
67697;BME280;54486;51.442;6.778;2024-01-07T07:35:47;79100.28;;;-141.21;89.00
67697;BME280;54486;51.442;6.778;2024-01-07T07:38:14;79108.31;;;-141.21;89.07
67697;BME280;54486;51.442;6.778;2024-01-07T07:40:42;79112.31;;;-141.21;89.29
67697;BME280;54486;51.442;6.778;2024-01-07T07:43:09;79112.31;;;-141.21;88.91
67697;BME280;54486;51.442;6.778;2024-01-07T07:45:36;79120.31;;;-141.21;88.63
67697;BME280;54486;51.442;6.778;2024-01-07T07:48:03;79124.34;;;-141.21;88.89
67697;BME280;54486;51.442;6.778;2024-01-07T07:50:32;79128.34;;;-141.21;88.92
67697;BME280;54486;51.442;6.778;2024-01-07T07:52:59;79132.34;;;-141.21;89.31
67697;BME280;54486;51.442;6.778;2024-01-07T07:55:26;79140.34;;;-141.21;89.55
67697;BME280;54486;51.442;6.778;2024-01-07T07:57:55;79148.38;;;-141.21;89.33
67697;BME280;54486;51.442;6.778;2024-01-07T08:00:22;79158.38;;;-141.21;87.95
67697;BME280;54486;51.442;6.778;2024-01-07T08:02:50;79164.38;;;-141.21;87.49
67697;BME280;54486;51.442;6.778;2024-01-07T08:05:17;79164.38;;;-141.21;88.24
67697;BME280;54486;51.442;6.778;2024-01-07T08:07:44;79160.38;;;-141.21;88.48
67697;BME280;54486;51.442;6.778;2024-01-07T08:10:11;79168.38;;;-141.21;87.85
67697;BME280;54486;51.442;6.778;2024-01-07T08:12:38;79168.38;;;-141.21;88.02
67697;BME280;54486;51.442;6.778;2024-01-07T08:15:06;79176.41;;;-141.21;88.17
67697;BME280;54486;51.442;6.778;2024-01-07T08:17:33;79174.41;;;-141.21;87.85
67697;BME280;54486;51.442;6.778;2024-01-07T08:20:01;79180.41;;;-141.21;87.58
67697;BME280;54486;51.442;6.778;2024-01-07T08:22:29;79188.41;;;-141.21;87.79
67697;BME280;54486;51.442;6.778;2024-01-07T08:24:56;79182.41;;;-141.21;87.66
67697;BME280;54486;51.442;6.778;2024-01-07T08:27:23;79188.41;;;-141.21;87.59
67697;BME280;54486;51.442;6.778;2024-01-07T08:29:50;79196.44;;;-141.21;87.26
67697;BME280;54486;51.442;6.778;2024-01-07T08:32:17;79202.44;;;-141.21;86.98
67697;BME280;54486;51.442;6.778;2024-01-07T08:34:44;79204.44;;;-141.21;87.12
67697;BME280;54486;51.442;6.778;2024-01-07T08:37:12;79212.44;;;-141.21;87.38
67697;BME280;54486;51.442;6.778;2024-01-07T08:39:39;79204.44;;;-141.21;87.63
67697;BME280;54486;51.442;6.778;2024-01-07T08:42:06;79208.44;;;-141.21;88.21
67697;BME280;54486;51.442;6.778;2024-01-07T08:44:34;79210.44;;;-141.21;87.94
67697;BME280;54486;51.442;6.778;2024-01-07T08:47:01;78151.13;;;-141.21;100.00
67697;BME280;54486;51.442;6.778;2024-01-07T08:50:57;77878.84;;;-141.21;58.68
67697;BME280;54486;51.442;6.778;2024-01-07T08:53:24;78023.00;;;-141.21;61.61
67697;BME280;54486;51.442;6.778;2024-01-07T08:55:51;78067.03;;;-141.21;60.93
67697;BME280;54486;51.442;6.778;2024-01-07T08:58:18;78083.06;;;-141.21;60.50
67697;BME280;54486;51.442;6.778;2024-01-07T09:00:45;78091.06;;;-141.21;60.16
67697;BME280;54486;51.442;6.778;2024-01-07T09:03:13;78091.06;;;-141.21;60.17
67697;BME280;54486;51.442;6.778;2024-01-07T09:05:40;78075.06;;;-141.21;60.49
67697;BME280;54486;51.442;6.778;2024-01-07T09:08:07;78075.06;;;-141.21;60.26
67697;BME280;54486;51.442;6.778;2024-01-07T09:10:34;78121.09;;;-141.21;59.68
67697;BME280;54486;51.442;6.778;2024-01-07T09:13:03;78113.09;;;-141.21;59.05
67697;BME280;54486;51.442;6.778;2024-01-07T09:15:30;78071.03;;;-141.21;60.24
67697;BME280;54486;51.442;6.778;2024-01-07T09:17:57;78039.00;;;-141.21;59.84
67697;BME280;54486;51.442;6.778;2024-01-07T09:20:24;78055.03;;;-141.21;59.22
67697;BME280;54486;51.442;6.778;2024-01-07T09:22:51;78047.03;;;-141.21;58.34
67697;BME280;54486;51.442;6.778;2024-01-07T09:25:18;78014.97;;;-141.21;58.82
67697;BME280;54486;51.442;6.778;2024-01-07T09:27:45;78055.03;;;-141.21;57.60
67697;BME280;54486;51.442;6.778;2024-01-07T09:30:13;78083.06;;;-141.21;58.72
67697;BME280;54486;51.442;6.778;2024-01-07T09:32:42;78103.06;;;-141.21;58.32
67697;BME280;54486;51.442;6.778;2024-01-07T09:35:09;78103.06;;;-141.21;58.84
67697;BME280;54486;51.442;6.778;2024-01-07T09:37:36;78091.06;;;-141.21;58.66
67697;BME280;54486;51.442;6.778;2024-01-07T09:40:04;78105.09;;;-141.21;58.33
67697;BME280;54486;51.442;6.778;2024-01-07T09:42:32;78119.09;;;-141.21;58.78
67697;BME280;54486;51.442;6.778;2024-01-07T09:45:03;78139.13;;;-141.21;57.84
67697;BME280;54486;51.442;6.778;2024-01-07T09:47:31;78107.09;;;-141.21;58.91
67697;BME280;54486;51.442;6.778;2024-01-07T09:49:59;78151.13;;;-141.21;58.22
67697;BME280;54486;51.442;6.778;2024-01-07T09:52:26;78139.13;;;-141.21;57.98
67697;BME280;54486;51.442;6.778;2024-01-07T09:54:58;78139.13;;;-141.21;58.28
67697;BME280;54486;51.442;6.778;2024-01-07T09:57:27;78139.13;;;-141.21;57.94
67697;BME280;54486;51.442;6.778;2024-01-07T09:59:55;78147.13;;;-141.21;57.61
67697;BME280;54486;51.442;6.778;2024-01-07T10:02:22;78131.09;;;-141.21;58.14
67697;BME280;54486;51.442;6.778;2024-01-07T10:04:50;77954.91;;;-141.21;60.36
67697;BME280;54486;51.442;6.778;2024-01-07T10:07:17;77974.94;;;-141.21;58.16
67697;BME280;54486;51.442;6.778;2024-01-07T10:09:44;78063.03;;;-141.21;58.84
67697;BME280;54486;51.442;6.778;2024-01-07T10:12:12;78099.06;;;-141.21;57.78
67697;BME280;54486;51.442;6.778;2024-01-07T10:14:40;78111.09;;;-141.21;57.81
67697;BME280;54486;51.442;6.778;2024-01-07T10:17:17;78111.09;;;-141.21;58.20
67697;BME280;54486;51.442;6.778;2024-01-07T10:19:45;78123.09;;;-141.21;57.75
67697;BME280;54486;51.442;6.778;2024-01-07T10:22:15;78127.09;;;-141.21;57.28
67697;BME280;54486;51.442;6.778;2024-01-07T10:24:43;78095.06;;;-141.21;57.74
67697;BME280;54486;51.442;6.778;2024-01-07T10:27:11;78099.06;;;-141.21;57.05
67697;BME280;54486;51.442;6.778;2024-01-07T10:29:38;78111.09;;;-141.21;57.60
67697;BME280;54486;51.442;6.778;2024-01-07T10:32:05;78107.09;;;-141.21;57.05
67697;BME280;54486;51.442;6.778;2024-01-07T10:34:36;78107.09;;;-141.21;56.83
67697;BME280;54486;51.442;6.778;2024-01-07T10:37:04;78091.06;;;-141.21;56.30
67697;BME280;54486;51.442;6.778;2024-01-07T10:39:35;78087.06;;;-141.21;56.46
67697;BME280;54486;51.442;6.778;2024-01-07T10:42:02;78099.06;;;-141.21;56.87
67697;BME280;54486;51.442;6.778;2024-01-07T10:44:31;78103.06;;;-141.21;56.98
67697;BME280;54486;51.442;6.778;2024-01-07T10:46:59;78131.09;;;-141.21;56.00
67697;BME280;54486;51.442;6.778;2024-01-07T10:49:28;78131.09;;;-141.21;56.62
67697;BME280;54486;51.442;6.778;2024-01-07T10:52:04;78131.09;;;-141.21;56.33
67697;BME280;54486;51.442;6.778;2024-01-07T10:54:33;78119.09;;;-141.21;55.28
67697;BME280;54486;51.442;6.778;2024-01-07T10:57:15;78047.03;;;-141.21;59.48
67697;BME280;54486;51.442;6.778;2024-01-07T10:59:47;77902.88;;;-141.21;60.50
67697;BME280;54486;51.442;6.778;2024-01-07T11:02:15;78039.00;;;-141.21;58.85
67697;BME280;54486;51.442;6.778;2024-01-07T11:05:10;78075.06;;;-141.21;58.58
67697;BME280;54486;51.442;6.778;2024-01-07T11:07:41;78115.09;;;-141.21;57.82
67697;BME280;54486;51.442;6.778;2024-01-07T11:10:20;78083.06;;;-141.21;58.54
67697;BME280;54486;51.442;6.778;2024-01-07T11:12:54;78149.13;;;-141.21;57.22
67697;BME280;54486;51.442;6.778;2024-01-07T11:15:50;78133.09;;;-141.21;57.42
67697;BME280;54486;51.442;6.778;2024-01-07T11:18:21;78119.09;;;-141.21;57.44
67697;BME280;54486;51.442;6.778;2024-01-07T11:20:49;78135.13;;;-141.21;57.19
67697;BME280;54486;51.442;6.778;2024-01-07T11:23:31;78133.09;;;-141.21;56.50
67697;BME280;54486;51.442;6.778;2024-01-07T11:26:06;78143.13;;;-141.21;56.22
67697;BME280;54486;51.442;6.778;2024-01-07T11:28:54;78155.13;;;-141.21;56.67
67697;BME280;54486;51.442;6.778;2024-01-07T11:34:09;78153.13;;;-141.21;56.50
67697;BME280;54486;51.442;6.778;2024-01-07T11:36:37;78159.13;;;-141.21;56.10
67697;BME280;54486;51.442;6.778;2024-01-07T11:39:05;78155.13;;;-141.21;55.58
67697;BME280;54486;51.442;6.778;2024-01-07T11:41:37;78175.16;;;-141.21;56.64
67697;BME280;54486;51.442;6.778;2024-01-07T11:44:08;78165.16;;;-141.21;55.90
67697;BME280;54486;51.442;6.778;2024-01-07T11:46:38;78159.13;;;-141.21;55.63
67697;BME280;54486;51.442;6.778;2024-01-07T11:49:05;78149.13;;;-141.21;55.58
67697;BME280;54486;51.442;6.778;2024-01-07T11:51:35;78175.16;;;-141.21;55.14
67697;BME280;54486;51.442;6.778;2024-01-07T11:54:04;78169.16;;;-141.21;55.41
67697;BME280;54486;51.442;6.778;2024-01-07T11:56:31;78183.16;;;-141.21;54.89
67697;BME280;54486;51.442;6.778;2024-01-07T11:58:59;78179.16;;;-141.21;54.84
67697;BME280;54486;51.442;6.778;2024-01-07T12:01:26;78167.16;;;-141.21;54.62
67697;BME280;54486;51.442;6.778;2024-01-07T12:03:54;78177.16;;;-141.21;54.76
67697;BME280;54486;51.442;6.778;2024-01-07T12:06:22;78179.16;;;-141.21;54.41
67697;BME280;54486;51.442;6.778;2024-01-07T12:08:49;78199.19;;;-141.21;54.60
67697;BME280;54486;51.442;6.778;2024-01-07T12:11:18;78195.19;;;-141.21;54.69
67697;BME280;54486;51.442;6.778;2024-01-07T12:13:45;78197.19;;;-141.21;54.24
67697;BME280;54486;51.442;6.778;2024-01-07T12:16:13;78199.19;;;-141.21;54.51
67697;BME280;54486;51.442;6.778;2024-01-07T12:18:40;78193.19;;;-141.21;54.65
67697;BME280;54486;51.442;6.778;2024-01-07T12:21:08;78163.16;;;-141.21;53.70
67697;BME280;54486;51.442;6.778;2024-01-07T12:23:36;78131.09;;;-141.21;53.63
67697;BME280;54486;51.442;6.778;2024-01-07T12:26:11;78175.16;;;-141.21;53.59
67697;BME280;54486;51.442;6.778;2024-01-07T12:28:39;78179.16;;;-141.21;53.41
67697;BME280;54486;51.442;6.778;2024-01-07T12:31:07;78217.19;;;-141.21;53.62
67697;BME280;54486;51.442;6.778;2024-01-07T12:33:38;78213.19;;;-141.21;53.54
67697;BME280;54486;51.442;6.778;2024-01-07T12:36:07;78159.13;;;-141.21;54.31
67697;BME280;54486;51.442;6.778;2024-01-07T12:38:38;78195.19;;;-141.21;52.54
67697;BME280;54486;51.442;6.778;2024-01-07T12:41:05;78233.22;;;-141.21;53.11
67697;BME280;54486;51.442;6.778;2024-01-07T12:43:33;78215.19;;;-141.21;52.83
67697;BME280;54486;51.442;6.778;2024-01-07T12:46:00;78219.22;;;-141.21;52.61
67697;BME280;54486;51.442;6.778;2024-01-07T12:48:33;78243.22;;;-141.21;52.94